Time;durP1;ratioP1;P1;durP2;ratioP2;P2;SDS_P1;SDS_P2;PMS_P1;PMS_P2;Temp;Humidity;BMP_temperature;BMP_pressure;BME280_temperature;BME280_humidity;BME280_pressure;Samples;Min_cycle;Max_cycle;Signal;HPM_P1;HPM_P2
2021/06/01 00:00:37;;;;;;;9.30;3.90;;;22.00;58.10;;;;;;12025693;27;20106;-78
2021/06/01 00:06:24;;;;;;;11.00;3.30;;;21.90;57.90;;;;;;12031615;28;20082;-78
2021/06/01 00:12:12;;;;;;;8.65;3.17;;;21.70;57.80;;;;;;12008100;28;20060;-79
2021/06/01 00:17:59;;;;;;;10.57;3.38;;;21.60;57.70;;;;;;11999684;28;20053;-72
2021/06/01 00:23:47;;;;;;;6.30;2.90;;;21.60;58.10;;;;;;11981143;28;20064;-72
2021/06/01 00:29:34;;;;;;;5.53;3.05;;;21.50;58.30;;;;;;11943728;28;20049;-72
2021/06/01 10:50:40;;;;;;;6.55;2.67;;;23.50;58.10;;;;;;12098629;27;20121;-78
2021/06/01 10:56:27;;;;;;;10.68;2.72;;;23.90;57.80;;;;;;12015661;28;20151;-80
2021/06/01 11:02:14;;;;;;;2.45;2.13;;;24.70;56.40;;;;;;12041779;28;20459;-79
2021/06/01 11:08:10;;;;;;;4.03;2.40;;;25.10;54.80;;;;;;12038047;28;20061;-77
2021/06/01 11:13:59;;;;;;;3.83;2.33;;;25.50;52.80;;;;;;12042420;28;20048;-80
2021/06/01 11:19:50;;;;;;;7.75;2.55;;;25.70;52.50;;;;;;12002213;28;20053;-79
2021/06/01 11:38:22;;;;;;;4.25;2.17;;;26.20;51.40;;;;;;11911865;28;20048;-77
2021/06/01 11:44:16;;;;;;;3.15;2.00;;;26.30;51.50;;;;;;11909730;28;20051;-77
2021/06/01 11:56:32;;;;;;;5.05;2.58;;;26.50;50.70;;;;;;11881601;28;20046;-78
2021/06/01 12:20:32;;;;;;;5.03;2.17;;;26.80;51.30;;;;;;11902275;28;20085;-81
2021/06/01 12:26:22;;;;;;;3.25;2.10;;;27.00;50.10;;;;;;11921106;28;20120;-79
2021/06/01 12:32:12;;;;;;;2.97;2.10;;;27.20;49.60;;;;;;11901322;28;20137;-79
2021/06/01 12:44:06;;;;;;;7.03;2.22;;;27.40;49.00;;;;;;11907056;28;20053;-77
2021/06/01 13:14:44;;;;;;;2.53;2.15;;;28.00;48.50;;;;;;11941626;28;20052;-78
2021/06/01 13:20:35;;;;;;;3.25;2.00;;;28.10;49.40;;;;;;11930267;28;20052;-79
2021/06/01 13:39:26;;;;;;;4.88;1.80;;;28.40;47.90;;;;;;11760168;28;20098;-78
2021/06/01 13:51:35;;;;;;;5.25;2.10;;;28.70;47.80;;;;;;11758891;28;20055;-80
2021/06/01 13:57:29;;;;;;;;;;;28.80;47.50;;;;;;11761203;28;20097;-80
2021/06/01 14:09:41;;;;;;;5.07;2.13;;;29.20;48.80;;;;;;11768877;28;20124;-81
2021/06/01 14:15:35;;;;;;;3.00;1.95;;;29.30;48.60;;;;;;11899087;28;20092;-79
2021/06/01 14:21:23;;;;;;;4.50;2.22;;;29.30;48.50;;;;;;11924417;28;20058;-80
2021/06/01 15:10:39;;;;;;;4.50;2.10;;;30.00;48.20;;;;;;11912926;28;20168;-79
2021/06/01 15:22:44;;;;;;;2.72;1.88;;;30.20;48.00;;;;;;11922774;28;20056;-78
2021/06/01 15:47:48;;;;;;;4.95;2.10;;;33.70;44.70;;;;;;11711768;29;20098;-82
2021/06/01 15:53:45;;;;;;;2.40;2.03;;;35.10;42.90;;;;;;11715634;29;20060;-80
2021/06/01 16:12:05;;;;;;;5.15;2.00;;;37.70;38.50;;;;;;11941446;28;20124;-80
2021/06/01 16:30:11;;;;;;;5.22;2.20;;;38.90;37.30;;;;;;11941002;28;20049;-79
2021/06/01 16:42:16;;;;;;;4.28;1.92;;;39.90;35.40;;;;;;11940548;28;20069;-80
2021/06/01 17:06:27;;;;;;;4.60;1.75;;;42.50;33.70;;;;;;11943281;28;20042;-78
2021/06/01 17:12:18;;;;;;;4.47;2.10;;;43.30;32.80;;;;;;11940585;28;20068;-77
2021/06/01 17:18:11;;;;;;;3.93;1.93;;;44.20;31.30;;;;;;11930503;28;20045;-82
2021/06/01 17:24:29;;;;;;;2.58;1.70;;;44.50;31.20;;;;;;11936860;28;20141;-81
2021/06/01 17:30:42;;;;;;;2.45;2.00;;;44.50;30.80;;;;;;11944396;28;20092;-81
2021/06/01 17:36:30;;;;;;;10.00;2.40;;;44.70;31.10;;;;;;11918700;28;20061;-80
2021/06/01 17:42:18;;;;;;;3.78;1.80;;;44.50;31.50;;;;;;11901848;28;20046;-81
2021/06/01 17:48:12;;;;;;;2.75;1.75;;;44.70;31.30;;;;;;11940182;28;20053;-80
2021/06/01 17:54:00;;;;;;;6.75;1.92;;;44.80;31.20;;;;;;11923711;28;20053;-83
2021/06/01 17:59:47;;;;;;;4.47;2.10;;;44.70;31.20;;;;;;11892524;28;20203;-81
2021/06/01 18:05:38;;;;;;;4.03;2.00;;;44.40;31.40;;;;;;11901383;28;20064;-82
2021/06/01 18:11:55;;;;;;;3.70;2.50;;;44.00;31.90;;;;;;11908128;28;20050;-82
2021/06/01 19:01:25;;;;;;;5.53;3.00;;;40.00;36.00;;;;;;11660235;29;20104;-81
2021/06/01 19:25:41;;;;;;;4.53;2.88;;;33.60;47.20;;;;;;11897669;28;20078;-73
2021/06/01 19:49:56;;;;;;;4.53;2.88;;;30.20;54.60;;;;;;11935896;28;20056;-72
2021/06/01 19:55:44;;;;;;;6.22;3.15;;;29.60;55.80;;;;;;11942003;28;20053;-73
2021/06/01 20:01:31;;;;;;;6.05;3.08;;;29.10;56.70;;;;;;11938710;28;20175;-73
2021/06/01 20:07:18;;;;;;;4.13;3.25;;;28.80;57.60;;;;;;11937515;28;20543;-73
2021/06/01 20:13:06;;;;;;;7.22;3.20;;;28.60;58.20;;;;;;11939206;28;20065;-73
2021/06/01 20:18:57;;;;;;;5.60;3.08;;;28.40;59.00;;;;;;11936706;28;20085;-74
2021/06/01 20:24:44;;;;;;;7.07;3.50;;;28.20;59.50;;;;;;11936409;28;20884;-72
2021/06/01 20:30:36;;;;;;;3.97;3.58;;;28.00;60.00;;;;;;11932063;28;20064;-73
2021/06/01 20:36:23;;;;;;;8.30;3.92;;;27.80;60.60;;;;;;11936199;28;20049;-73
2021/06/01 20:42:10;;;;;;;5.65;3.60;;;27.70;61.30;;;;;;11936518;28;20435;-73
2021/06/01 20:48:00;;;;;;;6.32;3.60;;;27.60;61.40;;;;;;11937188;28;20049;-72
2021/06/01 20:53:46;;;;;;;6.97;4.50;;;27.50;62.10;;;;;;11937651;28;20144;-74
2021/06/01 20:59:33;;;;;;;7.57;3.80;;;27.40;62.40;;;;;;11938043;28;20053;-75
2021/06/01 21:05:21;;;;;;;10.02;4.40;;;27.40;62.60;;;;;;11938095;28;20049;-72
2021/06/01 21:11:09;;;;;;;7.07;3.53;;;27.30;62.60;;;;;;11935890;28;20060;-72
2021/06/01 21:16:56;;;;;;;8.73;4.28;;;27.20;62.80;;;;;;11936527;28;20457;-72
2021/06/01 21:22:45;;;;;;;6.97;4.03;;;27.20;63.10;;;;;;11933087;28;20080;-72
2021/06/01 21:28:32;;;;;;;9.63;4.03;;;27.10;63.30;;;;;;11933777;28;20061;-74
2021/06/01 21:34:22;;;;;;;8.32;4.15;;;27.10;63.30;;;;;;11929897;28;20064;-73
2021/06/01 21:40:11;;;;;;;6.15;3.60;;;26.90;63.70;;;;;;11937986;28;20382;-73
2021/06/01 21:46:00;;;;;;;6.70;3.80;;;26.90;64.10;;;;;;11932078;28;20065;-71
2021/06/01 21:51:51;;;;;;;8.38;4.32;;;26.80;64.30;;;;;;11934563;28;20431;-71
2021/06/01 21:57:39;;;;;;;7.28;3.75;;;26.80;64.30;;;;;;11933260;28;20057;-71
2021/06/01 22:03:26;;;;;;;11.90;4.35;;;26.70;64.40;;;;;;11937232;28;20050;-73
2021/06/01 22:09:13;;;;;;;4.63;4.00;;;26.70;64.60;;;;;;11934796;28;20045;-71
2021/06/01 22:15:01;;;;;;;6.88;4.32;;;26.70;64.70;;;;;;11933954;28;20471;-72
2021/06/01 22:20:51;;;;;;;11.63;5.30;;;26.70;64.50;;;;;;11937113;28;20049;-78
2021/06/01 22:26:37;;;;;;;6.13;3.80;;;26.70;64.20;;;;;;11947040;28;20053;-79
2021/06/01 22:32:27;;;;;;;7.38;3.63;;;26.60;64.20;;;;;;11937283;28;20106;-70
2021/06/01 22:38:13;;;;;;;6.68;3.70;;;26.60;63.80;;;;;;11937033;28;20103;-71
2021/06/01 22:44:00;;;;;;;5.30;3.70;;;26.50;63.10;;;;;;11940151;28;20056;-78
2021/06/01 22:49:49;;;;;;;8.80;4.43;;;26.50;63.00;;;;;;11938712;28;20056;-77
2021/06/01 22:55:35;;;;;;;4.88;3.50;;;26.50;62.80;;;;;;11939632;28;20057;-77
2021/06/01 23:01:26;;;;;;;8.93;4.00;;;26.40;63.20;;;;;;11925215;28;20064;-77
2021/06/01 23:07:15;;;;;;;10.95;3.60;;;26.30;63.50;;;;;;11938152;28;20045;-79
2021/06/01 23:13:04;;;;;;;6.15;3.10;;;26.20;63.40;;;;;;11901134;28;20091;-80
2021/06/01 23:18:51;;;;;;;4.75;3.03;;;26.00;63.30;;;;;;11934486;28;20069;-71
2021/06/01 23:24:39;;;;;;;9.20;3.30;;;25.90;63.90;;;;;;11887675;28;20066;-73
2021/06/01 23:30:26;;;;;;;6.38;3.30;;;25.80;64.80;;;;;;11916799;28;21151;-73
2021/06/01 23:36:48;;;;;;;6.97;3.70;;;25.70;65.00;;;;;;11895079;28;20546;-73
2021/06/01 23:42:36;;;;;;;5.87;3.37;;;25.50;64.00;;;;;;11889861;28;20043;-73
2021/06/01 23:54:28;;;;;;;5.43;3.47;;;25.40;65.00;;;;;;11945652;28;20512;-80
